Portada
METAR-TAF:

METAR-TAF

Aeropuertos :

Ilam, Irán

latitud: 33-35-09N, longitud: 046-24-20E, altitud: 1334 m

Observación

El informe se hizo hace 28 minutos, a las 04:00 UTC
Viento 4 kt del sureste
Temperatura 25°C
Humedad 24%
Presión 1016 hPa
Visibilidad 10 km o más
sin nubes por debajo de 1500 m y sin presencia de cumulonimbus.

METAR: OICI 250400Z 13004KT CAVOK 25/03 Q1015 A2999

Hora: 08:58 (04:28 UTC)

Pronóstico

El informe se hizo hace 4 horas y 58 minutos, a las 23:30 UTC
Pronóstico válido del 25 a las 00 UTC al 26 a las 06 UTC
Viento 6 kt del este-sureste
Visibilidad: 7000 m
Evolucionando progresivamente
del 25 a las 06 UTC al 25 a las 10 UTC
Visibilidad: 4000 m
Polvo extendido
Temporalmente
del 25 a las 10 UTC al 25 a las 18 UTC
Visibilidad: 2000 m
Polvo extendido

TAF: OICI 242330Z 2500/2606 12006KT 7000 NSC BECMG 2506/2510 4000 DU TEMPO 2510/2518 2000 DU

Observaciones y pronósticos meteorológicos de más de 4000 aeropuertos (mensajes METAR y TAF).

Los puntos amarillos y rojos representan las estaciones disponibles.

Ponga el ratón en el punto deseado para ver el nombre de la estación.

Haga clic para ver las observaciones y los pronósticos meteorológicos.

Para cambiar el mapa : haga clic en los botones verdes con una cruz de color negro para hacer un zoom, en el botón verde con un guión para alejar o en las flechas verdes para mapas adyacentes.


METAR-TAF: